Página principal
METAR-TAF:

METAR-TAF

Aeroportos :

Aeroporto de Gibraltar

Gibraltar, Gibraltar

latitude: 36-09N, longitude: 005-21W, altura: 5 m

Observação actual do tempo

O boletim foi feito há 1 hora e 1 minutos, às 14:50 UTC
Vento 8 kt de este
Temperatura 24°C
Humidade 36%
Pressão 1016 hPa
Visibilidade 10 km ou mais
sem nuvens abaixo de 1500 metros e sem cumulonimbus

METAR: LXGB 231450Z 10008KT CAVOK 24/08 Q1016 NOSIG

Hora: 17:51 (15:51 UTC)

Previsão

O boletim foi feito há 2 horas e 9 minutos, às 13:42 UTC
Previsão válida de 23 às 15 UTC a 23 às 22 UTC
Vento 7 kt de este
Visibilidade 10 km ou mais
sem nuvens abaixo de 1500 metros e sem cumulonimbus

TAF: LXGB 231342Z 2315/2322 10007KT CAVOK

Observações e previsões do tempo de mais de 4000 aeroportos (mensagens METAR e TAF).

As estações disponíveis são os pontos amarelos e vermelhos sobre o mapa.

Mova o rato sobre o mapa para ver o nome da estação.

Depois clique no ponto para visualizar as observações e previsões meteorológicas.

Para alterar o mapa : clique nos botões verdes com uma cruz preta para aumentar o zoom; no botão verde com uma pitada de zoom; ou nas setas verdes para mapas adjacentes.


METAR-TAF: